createdAt,value
2023-05-19T00:02:01.605Z,12.50
2023-05-19T00:04:28.892Z,12.50
2023-05-19T00:06:58.275Z,12.50
2023-05-19T00:09:25.544Z,12.40
2023-05-19T00:11:52.588Z,12.40
2023-05-19T00:14:20.601Z,12.30
2023-05-19T00:16:48.277Z,12.20
2023-05-19T00:19:16.996Z,12.20
2023-05-19T00:21:44.277Z,12.10
2023-05-19T00:24:11.215Z,12.10
2023-05-19T00:26:38.181Z,12.10
2023-05-19T00:29:06.985Z,12.10
2023-05-19T00:31:34.123Z,12.40
2023-05-19T00:34:01.432Z,12.10
2023-05-19T00:36:28.840Z,12.10
2023-05-19T00:38:56.359Z,12.20
2023-05-19T00:41:23.241Z,12.00
2023-05-19T00:43:51.280Z,11.90
2023-05-19T00:46:19.614Z,11.90
2023-05-19T00:48:46.703Z,11.90
2023-05-19T00:51:16.783Z,11.80
2023-05-19T00:53:49.062Z,11.80
2023-05-19T00:56:16.877Z,11.70
2023-05-19T00:58:44.586Z,11.70
2023-05-19T01:01:12.339Z,11.70
2023-05-19T01:03:40.949Z,11.70
2023-05-19T01:06:08.246Z,11.70
2023-05-19T01:08:37.520Z,11.60
2023-05-19T01:11:06.752Z,11.60
2023-05-19T01:13:35.603Z,11.60
2023-05-19T01:16:40.477Z,11.60
2023-05-19T01:19:26.439Z,11.60
2023-05-19T01:22:13.192Z,11.40
2023-05-19T01:25:04.431Z,11.40
2023-05-19T01:28:02.214Z,11.30
2023-05-19T01:30:35.220Z,11.30
2023-05-19T01:33:06.827Z,11.20
2023-05-19T01:35:36.739Z,11.20
2023-05-19T01:38:05.313Z,11.20
2023-05-19T01:40:33.770Z,11.20
2023-05-19T01:43:02.582Z,11.20
2023-05-19T01:45:31.444Z,11.20
2023-05-19T01:48:01.163Z,11.30
2023-05-19T01:50:28.912Z,11.20
2023-05-19T01:52:55.945Z,11.20
2023-05-19T01:55:23.864Z,11.20
2023-05-19T01:58:02.677Z,11.20
2023-05-19T02:00:32.787Z,11.20
2023-05-19T02:03:15.025Z,11.20
2023-05-19T02:05:51.177Z,11.30
2023-05-19T02:08:23.289Z,11.30
2023-05-19T02:11:02.783Z,11.30
2023-05-19T02:13:34.096Z,11.30
2023-05-19T02:16:05.242Z,11.30
2023-05-19T02:18:35.722Z,11.30
2023-05-19T02:21:02.994Z,11.30
2023-05-19T02:23:29.887Z,11.20
2023-05-19T02:25:57.518Z,11.20
2023-05-19T02:28:28.387Z,11.30
2023-05-19T02:30:55.417Z,11.10
2023-05-19T02:33:24.656Z,11.10
2023-05-19T02:35:51.631Z,11.00
2023-05-19T02:38:18.747Z,10.90
2023-05-19T02:40:45.612Z,10.90
2023-05-19T02:43:12.460Z,10.90
2023-05-19T02:45:40.572Z,10.80
2023-05-19T02:48:12.600Z,10.80
2023-05-19T02:50:39.734Z,10.80
2023-05-19T02:53:06.698Z,10.70
2023-05-19T02:55:33.519Z,10.60
2023-05-19T02:58:00.492Z,10.60
2023-05-19T03:00:27.467Z,10.60
2023-05-19T03:02:54.630Z,10.60
2023-05-19T03:05:21.732Z,10.60
2023-05-19T03:07:48.564Z,10.70
2023-05-19T03:10:15.578Z,10.70
2023-05-19T03:12:42.421Z,10.70
2023-05-19T03:15:09.740Z,10.70
2023-05-19T03:17:36.786Z,10.70
2023-05-19T03:20:05.394Z,10.70
2023-05-19T03:22:32.509Z,10.70
2023-05-19T03:24:59.368Z,10.70
2023-05-19T03:27:26.335Z,10.70
2023-05-19T03:29:53.971Z,10.70
2023-05-19T03:32:21.769Z,10.70
2023-05-19T03:34:48.638Z,10.60
2023-05-19T03:37:17.352Z,10.70
2023-05-19T03:39:44.365Z,10.60
2023-05-19T03:42:11.223Z,10.60
2023-05-19T03:44:38.130Z,10.50
2023-05-19T03:47:05.322Z,10.50
2023-05-19T03:49:47.301Z,10.40
2023-05-19T03:52:38.565Z,10.40
2023-05-19T03:55:14.748Z,10.40
2023-05-19T03:57:41.921Z,10.40
2023-05-19T04:00:11.401Z,10.30
2023-05-19T04:02:41.385Z,10.30
2023-05-19T04:05:08.597Z,10.30
2023-05-19T04:07:37.295Z,10.20
2023-05-19T04:10:05.692Z,10.20
2023-05-19T04:12:33.011Z,10.20
2023-05-19T04:15:00.031Z,10.20
2023-05-19T04:17:27.849Z,10.10
2023-05-19T04:19:55.570Z,10.10
2023-05-19T04:22:22.650Z,10.10
2023-05-19T04:24:51.820Z,10.10
2023-05-19T04:27:19.679Z,10.10
2023-05-19T04:29:48.291Z,10.00
2023-05-19T04:32:17.676Z,10.00
2023-05-19T04:34:47.834Z,10.10
2023-05-19T04:37:24.182Z,10.10
2023-05-19T04:39:52.487Z,10.10
2023-05-19T04:42:20.781Z,10.00
2023-05-19T04:44:51.749Z,10.10
2023-05-19T04:47:21.772Z,10.00
2023-05-19T04:49:49.438Z,10.00
2023-05-19T04:52:21.725Z,10.00
2023-05-19T04:54:48.812Z,10.10
2023-05-19T04:57:15.687Z,10.10
2023-05-19T04:59:42.721Z,10.10
2023-05-19T05:02:10.570Z,10.10
2023-05-19T05:04:42.441Z,10.10
2023-05-19T05:07:10.159Z,10.10
2023-05-19T05:09:37.858Z,10.10
2023-05-19T05:12:07.556Z,10.20
2023-05-19T05:14:36.080Z,10.20
2023-05-19T05:17:03.845Z,10.10
2023-05-19T05:19:32.642Z,10.20
2023-05-19T05:22:00.363Z,10.20
2023-05-19T05:24:27.663Z,10.20
2023-05-19T05:26:59.370Z,10.20
2023-05-19T05:29:26.586Z,10.20
2023-05-19T05:31:54.142Z,10.30
2023-05-19T05:34:21.986Z,10.40
2023-05-19T05:36:48.958Z,10.50
2023-05-19T05:39:16.073Z,10.60
2023-05-19T05:41:45.058Z,10.70
2023-05-19T05:44:12.802Z,10.60
2023-05-19T05:46:42.119Z,10.60
2023-05-19T05:49:09.835Z,10.60
2023-05-19T05:51:37.183Z,10.70
2023-05-19T05:54:07.039Z,10.70
2023-05-19T05:56:41.256Z,10.70
2023-05-19T05:59:09.167Z,10.90
2023-05-19T06:01:36.783Z,10.80
2023-05-19T06:04:08.042Z,10.90
2023-05-19T06:06:36.051Z,11.00
2023-05-19T06:09:03.073Z,11.00
2023-05-19T06:11:29.993Z,11.00
2023-05-19T06:13:58.778Z,11.10
2023-05-19T06:16:55.036Z,11.10
2023-05-19T06:19:22.182Z,11.20
2023-05-19T06:21:49.170Z,11.20
2023-05-19T06:24:16.006Z,11.30
2023-05-19T06:26:42.851Z,11.30
2023-05-19T06:29:09.869Z,11.40
2023-05-19T06:31:37.647Z,11.40
2023-05-19T06:34:12.401Z,11.40
2023-05-19T06:36:41.392Z,11.50
2023-05-19T06:39:09.010Z,11.50
2023-05-19T06:41:36.437Z,11.50
2023-05-19T06:44:04.475Z,11.60
2023-05-19T06:46:33.571Z,11.80
2023-05-19T06:49:00.656Z,11.90
2023-05-19T06:51:31.428Z,11.90
2023-05-19T06:53:59.876Z,12.00
2023-05-19T06:56:27.606Z,12.00
2023-05-19T06:58:54.526Z,12.10
2023-05-19T07:01:27.958Z,12.20
2023-05-19T07:03:56.381Z,12.40
2023-05-19T07:06:23.300Z,12.50
2023-05-19T07:08:51.197Z,12.50
2023-05-19T07:11:18.732Z,12.60
2023-05-19T07:13:46.068Z,12.70
2023-05-19T07:16:16.732Z,12.90
2023-05-19T07:18:50.621Z,12.90
2023-05-19T07:21:17.933Z,13.10
2023-05-19T07:23:45.027Z,13.30
2023-05-19T07:26:12.058Z,13.10
2023-05-19T07:28:44.702Z,13.20
2023-05-19T07:31:11.548Z,13.30
2023-05-19T07:33:38.399Z,13.30
2023-05-19T07:36:05.476Z,13.30
2023-05-19T07:38:34.714Z,13.50
2023-05-19T07:41:03.039Z,13.60
2023-05-19T07:43:30.221Z,13.70
2023-05-19T07:45:57.361Z,13.90
2023-05-19T07:48:25.821Z,14.00
2023-05-19T07:50:53.136Z,14.00
2023-05-19T07:53:20.789Z,14.20
2023-05-19T07:55:47.854Z,14.40
2023-05-19T07:58:29.881Z,14.40
2023-05-19T08:01:00.522Z,14.50
2023-05-19T08:03:27.848Z,14.50
2023-05-19T08:05:55.086Z,14.60
2023-05-19T08:08:22.009Z,14.70
2023-05-19T08:10:49.074Z,14.80
2023-05-19T08:13:15.995Z,14.90
2023-05-19T08:15:43.476Z,15.00
2023-05-19T08:18:16.172Z,15.10
2023-05-19T08:20:42.955Z,15.30
2023-05-19T08:23:09.943Z,15.40
2023-05-19T08:25:36.745Z,15.60
2023-05-19T08:28:03.807Z,15.60
2023-05-19T08:30:30.898Z,15.90
2023-05-19T08:32:58.170Z,16.00
2023-05-19T08:35:25.139Z,16.10
2023-05-19T08:37:52.007Z,16.30
2023-05-19T08:40:19.718Z,16.50
2023-05-19T08:42:47.021Z,16.50
2023-05-19T08:45:14.229Z,16.50
2023-05-19T08:47:47.452Z,16.50
2023-05-19T08:50:24.841Z,16.60
2023-05-19T08:53:01.622Z,16.60
2023-05-19T08:55:31.714Z,16.60
2023-05-19T08:58:01.293Z,16.60
2023-05-19T09:00:29.726Z,16.60
2023-05-19T09:03:00.399Z,16.60
2023-05-19T09:05:28.495Z,16.70
2023-05-19T09:07:55.773Z,16.60
2023-05-19T09:10:22.916Z,16.80
2023-05-19T09:12:50.194Z,16.80
2023-05-19T09:15:20.756Z,16.90
2023-05-19T09:17:48.126Z,16.80
2023-05-19T09:20:16.962Z,17.00
2023-05-19T09:22:47.461Z,17.10
2023-05-19T09:25:23.998Z,17.30
2023-05-19T09:27:51.178Z,17.30
2023-05-19T09:30:18.463Z,17.50
2023-05-19T09:32:48.368Z,17.60
2023-05-19T09:35:20.212Z,17.60
2023-05-19T09:37:47.261Z,17.80
2023-05-19T09:40:15.798Z,17.70
2023-05-19T09:42:44.131Z,17.90
2023-05-19T09:45:11.487Z,17.80
2023-05-19T09:47:40.439Z,17.70
2023-05-19T09:50:09.671Z,17.80
2023-05-19T09:52:43.652Z,17.90
2023-05-19T09:55:12.921Z,18.00
2023-05-19T09:57:40.813Z,18.10
2023-05-19T10:00:15.142Z,18.10
2023-05-19T10:02:44.134Z,18.30
2023-05-19T10:05:20.470Z,18.40
2023-05-19T10:07:51.617Z,18.60
2023-05-19T10:10:22.313Z,18.80
2023-05-19T10:12:49.822Z,18.80
2023-05-19T10:15:21.432Z,19.00
2023-05-19T10:17:51.302Z,19.10
2023-05-19T10:20:18.375Z,19.00
2023-05-19T10:22:46.620Z,19.00
2023-05-19T10:25:15.662Z,19.10
2023-05-19T10:27:50.155Z,19.10
2023-05-19T10:30:39.667Z,19.30
2023-05-19T10:33:10.390Z,19.50
2023-05-19T10:35:58.457Z,19.60
2023-05-19T10:38:56.807Z,19.60
2023-05-19T10:41:55.463Z,19.50
2023-05-19T10:45:18.533Z,19.50
2023-05-19T10:47:46.146Z,19.70
2023-05-19T10:50:13.284Z,19.50
2023-05-19T10:52:40.945Z,19.60
2023-05-19T10:55:10.197Z,19.70
2023-05-19T10:57:37.193Z,19.80
2023-05-19T11:00:25.936Z,19.90
2023-05-19T11:02:56.426Z,20.00
2023-05-19T11:05:29.271Z,19.90
2023-05-19T11:08:06.249Z,19.80
2023-05-19T11:10:33.561Z,19.90
2023-05-19T11:13:01.072Z,19.70
2023-05-19T11:15:28.797Z,19.90
2023-05-19T11:17:56.217Z,19.80
2023-05-19T11:20:34.666Z,19.90
2023-05-19T11:23:21.099Z,20.10
2023-05-19T11:25:51.346Z,20.20
2023-05-19T11:29:21.740Z,20.40
2023-05-19T11:31:54.139Z,20.50
2023-05-19T11:34:26.127Z,20.60
2023-05-19T11:36:53.449Z,20.50
2023-05-19T11:39:26.111Z,20.40
2023-05-19T11:41:55.714Z,20.30
2023-05-19T11:44:22.655Z,20.60
2023-05-19T11:46:51.149Z,20.60
2023-05-19T11:49:23.549Z,20.40
2023-05-19T11:51:50.578Z,20.40
2023-05-19T11:54:19.265Z,20.50
2023-05-19T11:56:46.165Z,20.50
2023-05-19T11:59:13.082Z,20.40
2023-05-19T12:01:40.071Z,20.30
2023-05-19T12:04:10.549Z,20.50
2023-05-19T12:06:37.641Z,20.70
2023-05-19T12:09:05.643Z,20.80
2023-05-19T12:11:32.589Z,20.70
2023-05-19T12:13:59.662Z,20.60
2023-05-19T12:16:36.720Z,20.70
2023-05-19T12:19:07.208Z,20.90
2023-05-19T12:21:34.584Z,21.00
2023-05-19T12:24:02.087Z,21.00
2023-05-19T12:26:29.098Z,20.90
2023-05-19T12:29:21.180Z,20.90
2023-05-19T12:31:48.299Z,21.00
2023-05-19T12:34:15.918Z,20.90
2023-05-19T12:36:43.025Z,21.00
2023-05-19T12:39:14.433Z,21.00
2023-05-19T12:41:45.351Z,20.90
2023-05-19T12:44:22.934Z,20.90
2023-05-19T12:46:52.366Z,20.90
2023-05-19T12:49:25.048Z,20.90
2023-05-19T12:51:53.559Z,20.90
2023-05-19T12:54:29.265Z,20.90
2023-05-19T12:57:10.305Z,21.00
2023-05-19T13:00:00.931Z,21.00
2023-05-19T13:02:28.097Z,21.20
2023-05-19T13:04:55.054Z,21.10
2023-05-19T13:07:22.826Z,21.00
2023-05-19T13:09:55.252Z,21.00
2023-05-19T13:12:22.292Z,21.00
2023-05-19T13:14:57.610Z,20.90
2023-05-19T13:17:28.022Z,20.80
2023-05-19T13:20:22.133Z,21.00
2023-05-19T13:22:49.605Z,21.00
2023-05-19T13:25:18.565Z,21.00
2023-05-19T13:27:48.022Z,21.10
2023-05-19T13:30:16.309Z,21.30
2023-05-19T13:32:43.238Z,21.50
2023-05-19T13:35:11.006Z,21.70
2023-05-19T13:37:39.611Z,21.60
2023-05-19T13:40:07.453Z,21.70
2023-05-19T13:42:35.145Z,21.80
2023-05-19T13:45:03.048Z,21.90
2023-05-19T13:47:30.196Z,21.90
2023-05-19T13:50:12.471Z,22.00
2023-05-19T13:52:39.619Z,22.10
2023-05-19T13:55:07.592Z,22.20
2023-05-19T13:57:35.288Z,22.00
2023-05-19T14:00:04.092Z,22.10
2023-05-19T14:02:40.097Z,22.30
2023-05-19T14:05:08.106Z,22.30
2023-05-19T14:07:35.941Z,22.30
2023-05-19T14:10:05.583Z,22.40
2023-05-19T14:12:41.625Z,22.40
2023-05-19T14:15:22.300Z,22.30
2023-05-19T14:17:49.269Z,22.40
2023-05-19T14:20:16.281Z,22.40
2023-05-19T14:22:43.170Z,22.60
2023-05-19T14:25:10.135Z,22.60
2023-05-19T14:27:37.211Z,22.70
2023-05-19T14:30:04.401Z,22.60
2023-05-19T14:32:31.355Z,22.70
2023-05-19T14:34:58.631Z,22.70
2023-05-19T14:37:28.863Z,22.70
2023-05-19T14:39:58.275Z,22.80
2023-05-19T14:42:25.567Z,22.70
2023-05-19T14:44:52.480Z,22.50
2023-05-19T14:47:19.361Z,22.30
2023-05-19T14:50:11.271Z,22.40
2023-05-19T14:52:38.204Z,22.50
2023-05-19T14:55:05.528Z,22.50
2023-05-19T14:57:32.368Z,22.60
2023-05-19T15:00:26.318Z,22.60
2023-05-19T15:02:54.007Z,22.50
2023-05-19T15:05:23.172Z,22.30
2023-05-19T15:07:50.610Z,22.20
2023-05-19T15:10:20.745Z,22.20
2023-05-19T15:12:47.818Z,22.20
2023-05-19T15:15:17.982Z,22.40
2023-05-19T15:17:46.979Z,22.50
2023-05-19T15:20:14.043Z,22.70
2023-05-19T15:22:41.112Z,22.80
2023-05-19T15:25:09.114Z,22.70
2023-05-19T15:27:36.441Z,22.60
2023-05-19T15:30:04.833Z,22.60
2023-05-19T15:32:32.005Z,22.50
2023-05-19T15:34:58.986Z,22.30
2023-05-19T15:37:25.900Z,22.10
2023-05-19T15:39:54.902Z,22.10
2023-05-19T15:42:21.860Z,22.00
2023-05-19T15:44:48.789Z,21.80
2023-05-19T15:47:15.916Z,21.70
2023-05-19T15:49:43.179Z,21.70
2023-05-19T15:52:10.076Z,21.60
2023-05-19T15:54:36.915Z,21.70
2023-05-19T15:57:03.959Z,21.70
2023-05-19T15:59:31.444Z,21.80
2023-05-19T16:01:58.511Z,22.00
2023-05-19T16:04:25.553Z,22.00
2023-05-19T16:06:52.454Z,22.10
2023-05-19T16:09:24.597Z,22.00
2023-05-19T16:11:51.473Z,22.10
2023-05-19T16:14:18.428Z,22.20
2023-05-19T16:16:45.409Z,22.30
2023-05-19T16:19:12.664Z,22.30
2023-05-19T16:21:39.661Z,22.30
2023-05-19T16:24:06.720Z,22.30
2023-05-19T16:26:34.512Z,22.20
2023-05-19T16:29:08.504Z,22.20
2023-05-19T16:31:35.380Z,22.10
2023-05-19T16:34:02.402Z,22.10
2023-05-19T16:36:29.311Z,22.10
2023-05-19T16:38:56.806Z,22.00
2023-05-19T16:41:23.743Z,22.00
2023-05-19T16:43:50.660Z,21.90
2023-05-19T16:46:17.523Z,21.80
2023-05-19T16:48:44.460Z,21.80
2023-05-19T16:51:11.314Z,21.50
2023-05-19T16:53:39.787Z,21.60
2023-05-19T16:56:08.080Z,21.50
2023-05-19T16:58:35.060Z,21.40
2023-05-19T17:01:03.239Z,21.30
2023-05-19T17:03:32.039Z,21.20
2023-05-19T17:05:59.087Z,21.20
2023-05-19T17:08:26.258Z,21.10
2023-05-19T17:10:53.072Z,20.90
2023-05-19T17:13:19.960Z,20.90
2023-05-19T17:15:52.630Z,20.80
2023-05-19T17:19:06.212Z,20.80
2023-05-19T17:21:33.750Z,20.50
2023-05-19T17:24:00.977Z,20.40
2023-05-19T17:26:27.928Z,20.30
2023-05-19T17:28:55.600Z,20.10
2023-05-19T17:31:22.506Z,20.20
2023-05-19T17:33:49.457Z,20.20
2023-05-19T17:36:16.664Z,20.20
2023-05-19T17:38:43.652Z,20.10
2023-05-19T17:41:10.922Z,20.00
2023-05-19T17:43:39.109Z,19.80
2023-05-19T17:46:06.521Z,19.80
2023-05-19T17:48:39.751Z,19.80
2023-05-19T17:51:09.398Z,19.80
2023-05-19T17:53:36.717Z,19.70
2023-05-19T17:56:06.592Z,19.60
2023-05-19T17:58:39.527Z,19.40
2023-05-19T18:01:06.789Z,19.40
2023-05-19T18:03:34.379Z,19.40
2023-05-19T18:06:02.200Z,19.20
2023-05-19T18:08:31.199Z,19.10
2023-05-19T18:10:58.433Z,19.10
2023-05-19T18:13:26.100Z,19.00
2023-05-19T18:15:53.168Z,19.00
2023-05-19T18:18:25.640Z,18.90
2023-05-19T18:20:52.468Z,18.90
2023-05-19T18:23:20.492Z,18.80
2023-05-19T18:25:53.296Z,18.80
2023-05-19T18:28:25.936Z,18.80
2023-05-19T18:31:07.661Z,18.80
2023-05-19T18:33:34.852Z,18.70
2023-05-19T18:36:05.980Z,18.50
2023-05-19T18:39:13.431Z,18.50
2023-05-19T18:41:42.692Z,18.50
2023-05-19T18:44:09.678Z,18.30
2023-05-19T18:46:36.588Z,18.20
2023-05-19T18:49:04.400Z,18.30
2023-05-19T18:51:33.431Z,18.20
2023-05-19T18:54:00.466Z,18.50
2023-05-19T18:56:31.198Z,18.40
2023-05-19T18:59:13.511Z,18.70
2023-05-19T19:01:40.458Z,18.50
2023-05-19T19:04:07.508Z,18.60
2023-05-19T19:06:34.586Z,18.60
2023-05-19T19:09:21.446Z,18.50
2023-05-19T19:11:48.396Z,18.30
2023-05-19T19:14:15.301Z,18.20
2023-05-19T19:16:42.233Z,18.10
2023-05-19T19:19:09.954Z,18.10
2023-05-19T19:21:37.045Z,17.80
2023-05-19T19:24:04.196Z,17.90
2023-05-19T19:26:31.064Z,17.90
2023-05-19T19:28:58.682Z,17.60
2023-05-19T19:31:33.244Z,17.50
2023-05-19T19:34:03.701Z,17.40
2023-05-19T19:36:31.934Z,17.30
2023-05-19T19:39:04.578Z,17.60
2023-05-19T19:41:33.323Z,17.40
2023-05-19T19:44:00.450Z,17.30
2023-05-19T19:46:27.419Z,17.30
2023-05-19T19:49:00.482Z,17.40
2023-05-19T19:51:28.217Z,17.60
2023-05-19T19:53:55.072Z,17.30
2023-05-19T19:56:24.581Z,17.40
2023-05-19T19:59:32.009Z,17.10
2023-05-19T20:01:58.896Z,17.00
2023-05-19T20:04:26.557Z,17.40
2023-05-19T20:06:53.579Z,16.70
2023-05-19T20:09:40.789Z,16.90
2023-05-19T20:12:07.850Z,16.50
2023-05-19T20:14:34.680Z,16.50
2023-05-19T20:17:02.103Z,16.50
2023-05-19T20:23:38.875Z,16.20
2023-05-19T20:28:42.501Z,16.20
2023-05-19T20:31:09.484Z,16.10
2023-05-19T20:33:36.362Z,16.30
2023-05-19T20:36:03.424Z,16.10
2023-05-19T20:39:26.553Z,16.00
2023-05-19T20:41:53.517Z,15.80
2023-05-19T20:44:20.669Z,15.70
2023-05-19T20:46:47.836Z,15.60
2023-05-19T20:49:14.709Z,15.80
2023-05-19T20:51:41.542Z,15.60
2023-05-19T20:54:08.418Z,15.70
2023-05-19T20:56:35.369Z,15.60
2023-05-19T20:59:12.851Z,15.50
2023-05-19T21:01:39.894Z,15.80
2023-05-19T21:04:07.871Z,15.70
2023-05-19T21:06:34.910Z,15.50
2023-05-19T21:09:37.885Z,16.20
2023-05-19T21:12:05.100Z,15.20
2023-05-19T21:14:32.039Z,15.10
2023-05-19T21:16:59.475Z,15.00
2023-05-19T21:20:07.050Z,15.60
2023-05-19T21:22:35.730Z,15.10
2023-05-19T21:25:02.826Z,15.20
2023-05-19T21:27:32.198Z,14.90
2023-05-19T21:30:05.119Z,15.10
2023-05-19T21:32:32.212Z,15.20
2023-05-19T21:34:59.985Z,15.40
2023-05-19T21:37:26.847Z,15.20
2023-05-19T21:39:53.767Z,15.50
2023-05-19T21:42:20.651Z,15.30
2023-05-19T21:44:47.550Z,15.30
2023-05-19T21:47:14.622Z,16.60
2023-05-19T21:49:41.524Z,15.90
2023-05-19T21:52:08.580Z,15.30
2023-05-19T21:54:36.214Z,15.30
2023-05-19T21:57:03.356Z,15.50
2023-05-19T21:59:35.823Z,15.30
2023-05-19T22:02:02.815Z,15.30
2023-05-19T22:04:32.674Z,15.20
2023-05-19T22:06:59.592Z,15.20
2023-05-19T22:09:32.165Z,15.90
2023-05-19T22:11:59.085Z,16.50
2023-05-19T22:14:26.428Z,15.10
2023-05-19T22:16:53.438Z,15.00
2023-05-19T22:19:20.470Z,14.90
2023-05-19T22:21:48.261Z,15.70
2023-05-19T22:24:18.425Z,15.10
2023-05-19T22:26:46.989Z,15.00
2023-05-19T22:29:16.588Z,15.60
2023-05-19T22:31:43.421Z,15.00
2023-05-19T22:34:12.648Z,16.10
2023-05-19T22:36:41.262Z,15.00
2023-05-19T22:39:08.126Z,15.90
2023-05-19T22:41:35.269Z,15.20
2023-05-19T22:44:02.322Z,15.30
2023-05-19T22:46:29.380Z,14.80
2023-05-19T22:48:56.447Z,14.80
2023-05-19T22:51:23.442Z,14.90
2023-05-19T22:53:50.327Z,15.40
2023-05-19T22:56:17.329Z,14.60
2023-05-19T22:58:44.188Z,14.60
2023-05-19T23:01:11.392Z,15.30
2023-05-19T23:03:38.243Z,15.50
2023-05-19T23:06:05.257Z,14.70
2023-05-19T23:08:32.100Z,14.50
2023-05-19T23:11:02.519Z,14.90
2023-05-19T23:13:31.261Z,14.70
2023-05-19T23:15:58.172Z,15.20
2023-05-19T23:18:25.202Z,14.50
2023-05-19T23:20:52.196Z,14.30
2023-05-19T23:23:20.130Z,14.90
2023-05-19T23:25:47.085Z,14.70
2023-05-19T23:28:14.008Z,14.10
2023-05-19T23:30:40.951Z,14.10
2023-05-19T23:33:07.815Z,14.10
2023-05-19T23:35:35.194Z,15.40
2023-05-19T23:38:02.286Z,14.00
2023-05-19T23:40:29.157Z,14.10
2023-05-19T23:42:56.079Z,15.00
2023-05-19T23:45:23.017Z,14.30
2023-05-19T23:47:50.060Z,14.80
2023-05-19T23:50:17.056Z,15.20
2023-05-19T23:52:43.917Z,14.40
2023-05-19T23:55:12.981Z,14.50
2023-05-19T23:57:39.851Z,14.70
